sensor_id;sensor_type;location;lat;lon;timestamp;pressure;altitude;pressure_sealevel;temperature;humidity
50632;BME280;49583;45.590;-122.498;2022-12-07T00:01:17;101738.64;;;6.64;69.73
50632;BME280;49583;45.590;-122.498;2022-12-07T00:03:31;101736.02;;;6.62;69.69
50632;BME280;49583;45.590;-122.498;2022-12-07T00:05:44;101737.77;;;6.58;69.81
50632;BME280;49583;45.590;-122.498;2022-12-07T00:07:58;101739.48;;;6.58;69.67
50632;BME280;49583;45.590;-122.498;2022-12-07T00:10:12;101743.09;;;6.58;69.83
50632;BME280;49583;45.590;-122.498;2022-12-07T00:12:26;101743.84;;;6.55;70.01
50632;BME280;49583;45.590;-122.498;2022-12-07T00:14:39;101739.38;;;6.52;69.97
50632;BME280;49583;45.590;-122.498;2022-12-07T00:16:54;101739.61;;;6.49;70.01
50632;BME280;49583;45.590;-122.498;2022-12-07T00:19:08;101740.02;;;6.49;69.96
50632;BME280;49583;45.590;-122.498;2022-12-07T00:21:24;101743.31;;;6.47;69.89
50632;BME280;49583;45.590;-122.498;2022-12-07T00:23:38;101746.71;;;6.45;69.82
50632;BME280;49583;45.590;-122.498;2022-12-07T00:25:51;101751.39;;;6.43;70.24
50632;BME280;49583;45.590;-122.498;2022-12-07T00:28:05;101747.20;;;6.41;69.98
50632;BME280;49583;45.590;-122.498;2022-12-07T00:30:20;101753.61;;;6.39;70.05
50632;BME280;49583;45.590;-122.498;2022-12-07T00:32:34;101752.46;;;6.37;70.06
50632;BME280;49583;45.590;-122.498;2022-12-07T00:34:47;101750.88;;;6.36;70.29
50632;BME280;49583;45.590;-122.498;2022-12-07T00:37:01;101750.86;;;6.35;70.24
50632;BME280;49583;45.590;-122.498;2022-12-07T00:39:14;101757.95;;;6.35;70.31
50632;BME280;49583;45.590;-122.498;2022-12-07T00:41:29;101760.21;;;6.34;70.01
50632;BME280;49583;45.590;-122.498;2022-12-07T00:43:44;101758.48;;;6.33;70.38
50632;BME280;49583;45.590;-122.498;2022-12-07T00:45:57;101757.56;;;6.32;70.30
50632;BME280;49583;45.590;-122.498;2022-12-07T00:48:11;101758.58;;;6.31;70.47
50632;BME280;49583;45.590;-122.498;2022-12-07T00:50:25;101757.58;;;6.29;70.16
50632;BME280;49583;45.590;-122.498;2022-12-07T00:52:38;101756.27;;;6.29;70.37
50632;BME280;49583;45.590;-122.498;2022-12-07T00:54:51;101757.02;;;6.27;70.28
50632;BME280;49583;45.590;-122.498;2022-12-07T00:57:05;101756.41;;;6.25;70.35
50632;BME280;49583;45.590;-122.498;2022-12-07T00:59:18;101756.55;;;6.24;70.39
50632;BME280;49583;45.590;-122.498;2022-12-07T01:01:33;101760.41;;;6.21;70.46
50632;BME280;49583;45.590;-122.498;2022-12-07T01:03:48;101763.52;;;6.19;70.42
50632;BME280;49583;45.590;-122.498;2022-12-07T01:06:01;101764.14;;;6.19;70.63
50632;BME280;49583;45.590;-122.498;2022-12-07T01:08:15;101768.96;;;6.18;70.42
50632;BME280;49583;45.590;-122.498;2022-12-07T01:10:28;101774.23;;;6.15;70.57
50632;BME280;49583;45.590;-122.498;2022-12-07T01:12:42;101774.70;;;6.13;70.55
50632;BME280;49583;45.590;-122.498;2022-12-07T01:14:55;101775.76;;;6.12;70.90
50632;BME280;49583;45.590;-122.498;2022-12-07T01:17:08;101774.16;;;6.12;70.68
50632;BME280;49583;45.590;-122.498;2022-12-07T01:19:22;101775.58;;;6.12;70.99
50632;BME280;49583;45.590;-122.498;2022-12-07T01:21:37;101777.19;;;6.13;70.93
50632;BME280;49583;45.590;-122.498;2022-12-07T01:23:51;101777.98;;;6.14;70.90
50632;BME280;49583;45.590;-122.498;2022-12-07T01:26:06;101777.67;;;6.14;70.74
50632;BME280;49583;45.590;-122.498;2022-12-07T01:28:20;101779.91;;;6.13;70.92
50632;BME280;49583;45.590;-122.498;2022-12-07T01:30:33;101778.77;;;6.13;70.98
50632;BME280;49583;45.590;-122.498;2022-12-07T01:32:46;101778.83;;;6.14;71.12
50632;BME280;49583;45.590;-122.498;2022-12-07T01:35:00;101777.09;;;6.13;71.03
50632;BME280;49583;45.590;-122.498;2022-12-07T01:37:14;101775.52;;;6.13;71.22
50632;BME280;49583;45.590;-122.498;2022-12-07T01:39:27;101777.75;;;6.13;71.12
50632;BME280;49583;45.590;-122.498;2022-12-07T01:41:41;101779.77;;;6.12;70.98
50632;BME280;49583;45.590;-122.498;2022-12-07T01:44:21;101779.77;;;6.12;71.07
50632;BME280;49583;45.590;-122.498;2022-12-07T01:46:35;101781.35;;;6.12;71.16
50632;BME280;49583;45.590;-122.498;2022-12-07T01:48:48;101781.17;;;6.11;71.19
50632;BME280;49583;45.590;-122.498;2022-12-07T01:51:03;101782.71;;;6.11;71.09
50632;BME280;49583;45.590;-122.498;2022-12-07T01:53:19;101786.04;;;6.09;70.96
50632;BME280;49583;45.590;-122.498;2022-12-07T01:55:35;101785.39;;;6.10;71.12
50632;BME280;49583;45.590;-122.498;2022-12-07T01:57:52;101788.46;;;6.11;71.09
50632;BME280;49583;45.590;-122.498;2022-12-07T02:00:09;101786.64;;;6.10;71.26
50632;BME280;49583;45.590;-122.498;2022-12-07T02:02:26;101789.73;;;6.10;71.03
50632;BME280;49583;45.590;-122.498;2022-12-07T02:04:42;101786.71;;;6.09;71.25
50632;BME280;49583;45.590;-122.498;2022-12-07T02:06:57;101784.80;;;6.09;71.13
50632;BME280;49583;45.590;-122.498;2022-12-07T02:09:11;101784.81;;;6.08;71.28
50632;BME280;49583;45.590;-122.498;2022-12-07T02:11:24;101777.43;;;6.07;71.26
50632;BME280;49583;45.590;-122.498;2022-12-07T02:13:40;101776.36;;;6.06;71.43
50632;BME280;49583;45.590;-122.498;2022-12-07T02:16:04;101775.73;;;6.06;71.31
50632;BME280;49583;45.590;-122.498;2022-12-07T02:18:25;101776.06;;;6.05;71.37
50632;BME280;49583;45.590;-122.498;2022-12-07T02:20:51;101779.16;;;6.05;71.34
50632;BME280;49583;45.590;-122.498;2022-12-07T02:29:20;101792.02;;;6.04;71.49
50632;BME280;49583;45.590;-122.498;2022-12-07T02:31:36;101789.77;;;6.04;71.58
50632;BME280;49583;45.590;-122.498;2022-12-07T02:33:52;101788.52;;;6.03;71.53
50632;BME280;49583;45.590;-122.498;2022-12-07T02:36:10;101789.12;;;6.02;71.56
50632;BME280;49583;45.590;-122.498;2022-12-07T02:38:29;101794.01;;;6.03;71.63
50632;BME280;49583;45.590;-122.498;2022-12-07T02:40:47;101797.01;;;6.03;71.60
50632;BME280;49583;45.590;-122.498;2022-12-07T02:43:04;101797.50;;;6.02;71.60
50632;BME280;49583;45.590;-122.498;2022-12-07T02:45:21;101794.52;;;6.01;71.52
50632;BME280;49583;45.590;-122.498;2022-12-07T02:47:36;101793.39;;;6.01;71.61
50632;BME280;49583;45.590;-122.498;2022-12-07T02:49:51;101795.52;;;6.00;71.72
50632;BME280;49583;45.590;-122.498;2022-12-07T02:52:06;101797.27;;;5.99;71.89
50632;BME280;49583;45.590;-122.498;2022-12-07T02:54:21;101796.67;;;5.99;71.74
50632;BME280;49583;45.590;-122.498;2022-12-07T02:56:44;101801.41;;;5.98;71.83
50632;BME280;49583;45.590;-122.498;2022-12-07T02:59:07;101799.41;;;5.98;71.92
50632;BME280;49583;45.590;-122.498;2022-12-07T03:01:30;101796.38;;;5.98;71.82
50632;BME280;49583;45.590;-122.498;2022-12-07T03:03:53;101798.39;;;5.97;71.96
50632;BME280;49583;45.590;-122.498;2022-12-07T03:06:20;101799.02;;;5.96;72.03
50632;BME280;49583;45.590;-122.498;2022-12-07T03:08:47;101795.41;;;5.95;71.89
50632;BME280;49583;45.590;-122.498;2022-12-07T03:11:03;101793.83;;;5.95;72.11
50632;BME280;49583;45.590;-122.498;2022-12-07T03:13:22;101793.19;;;5.94;71.88
50632;BME280;49583;45.590;-122.498;2022-12-07T03:15:45;101794.66;;;5.94;71.93
50632;BME280;49583;45.590;-122.498;2022-12-07T03:18:01;101798.59;;;5.94;71.99
50632;BME280;49583;45.590;-122.498;2022-12-07T03:20:19;101800.01;;;5.93;72.01
50632;BME280;49583;45.590;-122.498;2022-12-07T03:22:36;101801.86;;;5.93;72.02
50632;BME280;49583;45.590;-122.498;2022-12-07T03:24:53;101798.94;;;5.92;71.97
50632;BME280;49583;45.590;-122.498;2022-12-07T03:27:11;101798.02;;;5.91;72.09
50632;BME280;49583;45.590;-122.498;2022-12-07T03:29:34;101802.33;;;5.90;72.40
50632;BME280;49583;45.590;-122.498;2022-12-07T03:31:53;101802.13;;;5.89;72.13
50632;BME280;49583;45.590;-122.498;2022-12-07T03:34:11;101801.10;;;5.89;72.44
50632;BME280;49583;45.590;-122.498;2022-12-07T03:36:32;101802.48;;;5.89;72.34
50632;BME280;49583;45.590;-122.498;2022-12-07T03:38:52;101803.67;;;5.88;72.47
50632;BME280;49583;45.590;-122.498;2022-12-07T03:41:09;101806.02;;;5.87;72.35
50632;BME280;49583;45.590;-122.498;2022-12-07T03:43:24;101806.02;;;5.87;72.25
50632;BME280;49583;45.590;-122.498;2022-12-07T03:45:41;101810.48;;;5.87;72.31
50632;BME280;49583;45.590;-122.498;2022-12-07T03:48:04;101808.87;;;5.86;72.35
50632;BME280;49583;45.590;-122.498;2022-12-07T03:50:25;101807.05;;;5.84;72.45
50632;BME280;49583;45.590;-122.498;2022-12-07T03:52:43;101812.09;;;5.85;72.48
50632;BME280;49583;45.590;-122.498;2022-12-07T03:55:00;101813.51;;;5.84;72.42
50632;BME280;49583;45.590;-122.498;2022-12-07T03:57:19;101812.92;;;5.83;72.65
50632;BME280;49583;45.590;-122.498;2022-12-07T03:59:34;101812.71;;;5.83;72.59
50632;BME280;49583;45.590;-122.498;2022-12-07T04:01:55;101813.64;;;5.82;72.69
50632;BME280;49583;45.590;-122.498;2022-12-07T04:04:09;101816.77;;;5.81;72.60
50632;BME280;49583;45.590;-122.498;2022-12-07T04:06:23;101821.57;;;5.80;72.62
50632;BME280;49583;45.590;-122.498;2022-12-07T04:08:36;101824.09;;;5.80;72.65
50632;BME280;49583;45.590;-122.498;2022-12-07T04:10:49;101822.95;;;5.79;72.64
50632;BME280;49583;45.590;-122.498;2022-12-07T04:13:02;101828.17;;;5.79;72.62
50632;BME280;49583;45.590;-122.498;2022-12-07T04:15:17;101831.33;;;5.79;72.82
50632;BME280;49583;45.590;-122.498;2022-12-07T04:17:30;101832.97;;;5.79;73.09
50632;BME280;49583;45.590;-122.498;2022-12-07T04:19:44;101835.61;;;5.82;73.19
50632;BME280;49583;45.590;-122.498;2022-12-07T04:21:58;101837.85;;;5.86;73.17
50632;BME280;49583;45.590;-122.498;2022-12-07T04:24:13;101837.95;;;5.87;73.23
50632;BME280;49583;45.590;-122.498;2022-12-07T04:26:27;101834.90;;;5.87;73.05
50632;BME280;49583;45.590;-122.498;2022-12-07T04:28:41;101833.05;;;5.86;72.80
50632;BME280;49583;45.590;-122.498;2022-12-07T04:30:55;101835.09;;;5.85;72.94
50632;BME280;49583;45.590;-122.498;2022-12-07T04:33:09;101838.90;;;5.84;72.72
50632;BME280;49583;45.590;-122.498;2022-12-07T04:35:23;101835.80;;;5.81;72.78
50632;BME280;49583;45.590;-122.498;2022-12-07T04:37:37;101836.70;;;5.79;72.89
50632;BME280;49583;45.590;-122.498;2022-12-07T04:39:51;101837.39;;;5.77;72.90
50632;BME280;49583;45.590;-122.498;2022-12-07T04:42:04;101837.83;;;5.77;72.85
50632;BME280;49583;45.590;-122.498;2022-12-07T04:44:18;101838.33;;;5.76;73.13
50632;BME280;49583;45.590;-122.498;2022-12-07T04:46:32;101840.24;;;5.75;73.25
50632;BME280;49583;45.590;-122.498;2022-12-07T04:48:46;101838.05;;;5.73;73.11
50632;BME280;49583;45.590;-122.498;2022-12-07T04:51:00;101839.66;;;5.73;73.12
50632;BME280;49583;45.590;-122.498;2022-12-07T04:53:13;101837.63;;;5.73;73.20
50632;BME280;49583;45.590;-122.498;2022-12-07T04:55:28;101833.95;;;5.72;73.22
50632;BME280;49583;45.590;-122.498;2022-12-07T04:57:41;101842.39;;;5.72;73.10
50632;BME280;49583;45.590;-122.498;2022-12-07T04:59:55;101844.63;;;5.71;73.13
50632;BME280;49583;45.590;-122.498;2022-12-07T05:02:10;101842.80;;;5.69;73.17
50632;BME280;49583;45.590;-122.498;2022-12-07T05:04:24;101848.23;;;5.69;73.36
50632;BME280;49583;45.590;-122.498;2022-12-07T05:06:37;101846.84;;;5.68;73.39
50632;BME280;49583;45.590;-122.498;2022-12-07T05:08:50;101849.27;;;5.68;73.42
50632;BME280;49583;45.590;-122.498;2022-12-07T05:11:05;101847.39;;;5.67;73.20
50632;BME280;49583;45.590;-122.498;2022-12-07T05:13:18;101847.02;;;5.67;73.15
50632;BME280;49583;45.590;-122.498;2022-12-07T05:15:31;101846.70;;;5.66;73.60
50632;BME280;49583;45.590;-122.498;2022-12-07T05:17:45;101849.05;;;5.65;73.36
50632;BME280;49583;45.590;-122.498;2022-12-07T05:19:58;101847.00;;;5.65;73.59
50632;BME280;49583;45.590;-122.498;2022-12-07T05:22:13;101849.95;;;5.64;73.68
50632;BME280;49583;45.590;-122.498;2022-12-07T05:24:26;101845.04;;;5.63;73.61
50632;BME280;49583;45.590;-122.498;2022-12-07T05:26:40;101846.89;;;5.62;73.51
50632;BME280;49583;45.590;-122.498;2022-12-07T05:28:55;101847.11;;;5.62;73.74
50632;BME280;49583;45.590;-122.498;2022-12-07T05:31:10;101846.52;;;5.62;73.70
50632;BME280;49583;45.590;-122.498;2022-12-07T05:33:23;101844.95;;;5.61;73.58
50632;BME280;49583;45.590;-122.498;2022-12-07T05:35:36;101842.61;;;5.61;73.77
50632;BME280;49583;45.590;-122.498;2022-12-07T05:37:51;101843.94;;;5.60;73.69
50632;BME280;49583;45.590;-122.498;2022-12-07T05:40:06;101845.35;;;5.59;73.92
50632;BME280;49583;45.590;-122.498;2022-12-07T05:42:20;101848.23;;;5.58;73.72
50632;BME280;49583;45.590;-122.498;2022-12-07T05:44:34;101847.10;;;5.59;73.84
50632;BME280;49583;45.590;-122.498;2022-12-07T05:46:47;101846.77;;;5.58;73.96
50632;BME280;49583;45.590;-122.498;2022-12-07T05:49:01;101847.06;;;5.58;73.87
50632;BME280;49583;45.590;-122.498;2022-12-07T05:51:15;101846.48;;;5.57;73.77
50632;BME280;49583;45.590;-122.498;2022-12-07T05:53:29;101849.33;;;5.57;73.89
50632;BME280;49583;45.590;-122.498;2022-12-07T05:55:44;101848.14;;;5.55;74.05
50632;BME280;49583;45.590;-122.498;2022-12-07T05:57:57;101843.05;;;5.55;74.00
50632;BME280;49583;45.590;-122.498;2022-12-07T06:00:25;101846.96;;;5.55;74.05
50632;BME280;49583;45.590;-122.498;2022-12-07T06:02:39;101846.96;;;5.55;74.14
50632;BME280;49583;45.590;-122.498;2022-12-07T06:04:52;101844.92;;;5.53;74.00
50632;BME280;49583;45.590;-122.498;2022-12-07T06:07:06;101846.94;;;5.53;73.87
50632;BME280;49583;45.590;-122.498;2022-12-07T06:09:20;101848.95;;;5.52;73.88
50632;BME280;49583;45.590;-122.498;2022-12-07T06:11:34;101847.30;;;5.50;73.91
50632;BME280;49583;45.590;-122.498;2022-12-07T06:14:04;101844.56;;;5.50;73.90
50632;BME280;49583;45.590;-122.498;2022-12-07T06:16:19;101851.99;;;5.49;74.11
50632;BME280;49583;45.590;-122.498;2022-12-07T06:18:32;101848.82;;;5.48;74.08
50632;BME280;49583;45.590;-122.498;2022-12-07T06:20:47;101849.43;;;5.47;73.77
50632;BME280;49583;45.590;-122.498;2022-12-07T06:23:01;101848.73;;;5.47;73.98
50632;BME280;49583;45.590;-122.498;2022-12-07T06:25:15;101846.66;;;5.46;73.78
50632;BME280;49583;45.590;-122.498;2022-12-07T06:27:28;101852.21;;;5.46;74.08
50632;BME280;49583;45.590;-122.498;2022-12-07T06:29:42;101855.53;;;5.45;74.13
50632;BME280;49583;45.590;-122.498;2022-12-07T06:31:56;101857.27;;;5.45;74.21
50632;BME280;49583;45.590;-122.498;2022-12-07T06:34:12;101857.02;;;5.44;74.37
50632;BME280;49583;45.590;-122.498;2022-12-07T06:36:27;101858.21;;;5.43;74.17
50632;BME280;49583;45.590;-122.498;2022-12-07T06:38:41;101855.40;;;5.43;74.17
50632;BME280;49583;45.590;-122.498;2022-12-07T06:40:54;101858.77;;;5.42;74.32
50632;BME280;49583;45.590;-122.498;2022-12-07T06:43:07;101853.44;;;5.43;74.02
50632;BME280;49583;45.590;-122.498;2022-12-07T06:45:21;101855.01;;;5.43;74.39
50632;BME280;49583;45.590;-122.498;2022-12-07T06:47:34;101853.91;;;5.44;74.13
50632;BME280;49583;45.590;-122.498;2022-12-07T06:49:52;101860.27;;;5.45;74.52
50632;BME280;49583;45.590;-122.498;2022-12-07T06:52:08;101860.33;;;5.43;74.27
50632;BME280;49583;45.590;-122.498;2022-12-07T06:54:21;101864.35;;;5.43;74.26
50632;BME280;49583;45.590;-122.498;2022-12-07T06:56:33;101864.53;;;5.42;74.34
50632;BME280;49583;45.590;-122.498;2022-12-07T06:58:46;101858.11;;;5.43;74.48
50632;BME280;49583;45.590;-122.498;2022-12-07T07:00:59;101859.30;;;5.43;74.53
50632;BME280;49583;45.590;-122.498;2022-12-07T07:03:14;101864.31;;;5.43;74.51
50632;BME280;49583;45.590;-122.498;2022-12-07T07:05:27;101864.20;;;5.42;74.68
50632;BME280;49583;45.590;-122.498;2022-12-07T07:07:41;101864.48;;;5.42;74.35
50632;BME280;49583;45.590;-122.498;2022-12-07T07:10:15;101861.45;;;5.42;74.26
50632;BME280;49583;45.590;-122.498;2022-12-07T07:12:28;101862.39;;;5.41;74.44
50632;BME280;49583;45.590;-122.498;2022-12-07T07:14:41;101859.13;;;5.41;74.55
50632;BME280;49583;45.590;-122.498;2022-12-07T07:16:54;101860.70;;;5.42;74.68
50632;BME280;49583;45.590;-122.498;2022-12-07T07:19:08;101862.15;;;5.42;74.62
50632;BME280;49583;45.590;-122.498;2022-12-07T07:21:22;101861.19;;;5.41;74.59
50632;BME280;49583;45.590;-122.498;2022-12-07T07:23:36;101858.66;;;5.40;74.68
50632;BME280;49583;45.590;-122.498;2022-12-07T07:25:50;101859.16;;;5.39;74.60
50632;BME280;49583;45.590;-122.498;2022-12-07T07:28:03;101861.29;;;5.39;74.65
50632;BME280;49583;45.590;-122.498;2022-12-07T07:30:17;101863.09;;;5.38;74.68
50632;BME280;49583;45.590;-122.498;2022-12-07T07:32:32;101864.39;;;5.38;74.69
50632;BME280;49583;45.590;-122.498;2022-12-07T07:34:45;101860.86;;;5.37;74.80
50632;BME280;49583;45.590;-122.498;2022-12-07T07:37:00;101860.77;;;5.37;74.68
50632;BME280;49583;45.590;-122.498;2022-12-07T07:39:14;101857.23;;;5.36;74.85
50632;BME280;49583;45.590;-122.498;2022-12-07T07:41:29;101857.31;;;5.35;74.60
50632;BME280;49583;45.590;-122.498;2022-12-07T07:43:44;101859.62;;;5.34;74.54
50632;BME280;49583;45.590;-122.498;2022-12-07T07:45:58;101863.29;;;5.33;74.71
50632;BME280;49583;45.590;-122.498;2022-12-07T07:48:12;101863.62;;;5.32;74.76
50632;BME280;49583;45.590;-122.498;2022-12-07T07:50:25;101862.97;;;5.32;74.70
50632;BME280;49583;45.590;-122.498;2022-12-07T07:52:40;101859.17;;;5.31;74.81
50632;BME280;49583;45.590;-122.498;2022-12-07T07:54:53;101856.58;;;5.31;75.18
50632;BME280;49583;45.590;-122.498;2022-12-07T07:57:06;101854.90;;;5.30;74.79
50632;BME280;49583;45.590;-122.498;2022-12-07T07:59:20;101853.61;;;5.29;75.02
50632;BME280;49583;45.590;-122.498;2022-12-07T08:01:33;101861.16;;;5.28;75.10
50632;BME280;49583;45.590;-122.498;2022-12-07T08:03:47;101864.77;;;5.27;75.25
50632;BME280;49583;45.590;-122.498;2022-12-07T08:06:01;101865.37;;;5.27;75.09
50632;BME280;49583;45.590;-122.498;2022-12-07T08:08:16;101869.23;;;5.27;75.19
50632;BME280;49583;45.590;-122.498;2022-12-07T08:10:30;101862.45;;;5.26;75.32
50632;BME280;49583;45.590;-122.498;2022-12-07T08:12:45;101862.37;;;5.25;75.34
50632;BME280;49583;45.590;-122.498;2022-12-07T08:15:17;101860.27;;;5.24;75.20
50632;BME280;49583;45.590;-122.498;2022-12-07T08:17:30;101859.61;;;5.24;75.50
50632;BME280;49583;45.590;-122.498;2022-12-07T08:19:44;101859.29;;;5.24;75.20
50632;BME280;49583;45.590;-122.498;2022-12-07T08:21:57;101855.11;;;5.24;75.12
50632;BME280;49583;45.590;-122.498;2022-12-07T08:24:11;101853.36;;;5.25;75.46
50632;BME280;49583;45.590;-122.498;2022-12-07T08:26:25;101851.09;;;5.24;75.50
50632;BME280;49583;45.590;-122.498;2022-12-07T08:28:39;101849.34;;;5.25;75.23
50632;BME280;49583;45.590;-122.498;2022-12-07T08:30:53;101846.17;;;5.25;75.24
50632;BME280;49583;45.590;-122.498;2022-12-07T08:33:13;101845.93;;;5.24;75.26
50632;BME280;49583;45.590;-122.498;2022-12-07T08:35:27;101842.20;;;5.22;75.17
50632;BME280;49583;45.590;-122.498;2022-12-07T08:37:41;101841.50;;;5.21;75.31
50632;BME280;49583;45.590;-122.498;2022-12-07T08:39:56;101837.52;;;5.20;75.37
50632;BME280;49583;45.590;-122.498;2022-12-07T08:42:10;101839.42;;;5.19;75.36
50632;BME280;49583;45.590;-122.498;2022-12-07T08:44:24;101836.52;;;5.18;75.45
50632;BME280;49583;45.590;-122.498;2022-12-07T08:46:40;101839.01;;;5.18;75.25
50632;BME280;49583;45.590;-122.498;2022-12-07T08:48:58;101835.66;;;5.18;75.47
50632;BME280;49583;45.590;-122.498;2022-12-07T08:51:15;101836.05;;;5.17;75.28
50632;BME280;49583;45.590;-122.498;2022-12-07T08:53:30;101839.25;;;5.17;75.41
50632;BME280;49583;45.590;-122.498;2022-12-07T08:55:44;101838.00;;;5.17;75.42
50632;BME280;49583;45.590;-122.498;2022-12-07T08:57:58;101837.20;;;5.17;75.73
50632;BME280;49583;45.590;-122.498;2022-12-07T09:00:14;101833.94;;;5.17;75.53
50632;BME280;49583;45.590;-122.498;2022-12-07T09:02:27;101833.40;;;5.16;75.66
50632;BME280;49583;45.590;-122.498;2022-12-07T09:04:41;101834.96;;;5.16;75.40
50632;BME280;49583;45.590;-122.498;2022-12-07T09:06:56;101830.30;;;5.16;75.70
50632;BME280;49583;45.590;-122.498;2022-12-07T09:09:10;101831.27;;;5.16;75.60
50632;BME280;49583;45.590;-122.498;2022-12-07T09:11:25;101829.20;;;5.17;75.58
50632;BME280;49583;45.590;-122.498;2022-12-07T09:13:38;101831.27;;;5.17;75.64
50632;BME280;49583;45.590;-122.498;2022-12-07T09:15:52;101833.27;;;5.17;75.63
50632;BME280;49583;45.590;-122.498;2022-12-07T09:18:05;101833.88;;;5.17;75.74
50632;BME280;49583;45.590;-122.498;2022-12-07T09:20:18;101837.30;;;5.16;75.63
50632;BME280;49583;45.590;-122.498;2022-12-07T09:22:38;101835.02;;;5.16;75.83
50632;BME280;49583;45.590;-122.498;2022-12-07T09:24:51;101835.14;;;5.15;75.67
50632;BME280;49583;45.590;-122.498;2022-12-07T09:27:05;101833.15;;;5.14;75.40
50632;BME280;49583;45.590;-122.498;2022-12-07T09:29:18;101831.91;;;5.13;75.96
50632;BME280;49583;45.590;-122.498;2022-12-07T09:31:33;101831.55;;;5.12;75.89
50632;BME280;49583;45.590;-122.498;2022-12-07T09:33:52;101835.50;;;5.12;75.74
50632;BME280;49583;45.590;-122.498;2022-12-07T09:36:07;101835.88;;;5.12;75.58
50632;BME280;49583;45.590;-122.498;2022-12-07T09:38:21;101837.66;;;5.11;75.91
50632;BME280;49583;45.590;-122.498;2022-12-07T09:40:37;101837.60;;;5.11;76.03
50632;BME280;49583;45.590;-122.498;2022-12-07T09:42:53;101841.52;;;5.10;75.68
50632;BME280;49583;45.590;-122.498;2022-12-07T09:45:15;101842.45;;;5.10;75.78
50632;BME280;49583;45.590;-122.498;2022-12-07T09:47:30;101846.47;;;5.10;75.66
50632;BME280;49583;45.590;-122.498;2022-12-07T09:49:46;101847.60;;;5.11;76.03
50632;BME280;49583;45.590;-122.498;2022-12-07T09:52:19;101844.30;;;5.10;75.89
50632;BME280;49583;45.590;-122.498;2022-12-07T09:54:37;101847.61;;;5.10;75.80
50632;BME280;49583;45.590;-122.498;2022-12-07T09:56:53;101846.04;;;5.09;75.99
50632;BME280;49583;45.590;-122.498;2022-12-07T09:59:09;101851.59;;;5.09;76.07
50632;BME280;49583;45.590;-122.498;2022-12-07T10:01:27;101851.64;;;5.08;75.90
50632;BME280;49583;45.590;-122.498;2022-12-07T10:03:45;101849.36;;;5.08;75.89
50632;BME280;49583;45.590;-122.498;2022-12-07T10:06:04;101856.05;;;5.08;76.01
50632;BME280;49583;45.590;-122.498;2022-12-07T10:08:19;101856.37;;;5.08;75.93
50632;BME280;49583;45.590;-122.498;2022-12-07T10:10:34;101854.55;;;5.06;76.11
50632;BME280;49583;45.590;-122.498;2022-12-07T10:13:03;101857.03;;;5.08;76.28
50632;BME280;49583;45.590;-122.498;2022-12-07T10:15:18;101857.41;;;5.08;76.09
50632;BME280;49583;45.590;-122.498;2022-12-07T10:17:37;101860.08;;;5.07;76.16
50632;BME280;49583;45.590;-122.498;2022-12-07T10:19:52;101861.11;;;5.06;76.14
50632;BME280;49583;45.590;-122.498;2022-12-07T10:22:24;101860.30;;;5.07;76.19
50632;BME280;49583;45.590;-122.498;2022-12-07T10:24:43;101857.96;;;5.07;76.32
50632;BME280;49583;45.590;-122.498;2022-12-07T10:26:59;101857.47;;;5.07;76.65
50632;BME280;49583;45.590;-122.498;2022-12-07T10:29:20;101859.32;;;5.07;76.28
50632;BME280;49583;45.590;-122.498;2022-12-07T10:31:34;101859.48;;;5.07;76.20
50632;BME280;49583;45.590;-122.498;2022-12-07T10:33:55;101858.13;;;5.07;76.21
50632;BME280;49583;45.590;-122.498;2022-12-07T10:36:25;101855.14;;;5.06;76.22
50632;BME280;49583;45.590;-122.498;2022-12-07T10:38:46;101856.88;;;5.07;76.51
50632;BME280;49583;45.590;-122.498;2022-12-07T10:41:09;101854.82;;;5.06;76.28
50632;BME280;49583;45.590;-122.498;2022-12-07T10:43:23;101853.25;;;5.06;76.65
50632;BME280;49583;45.590;-122.498;2022-12-07T10:45:38;101849.58;;;5.04;76.49
50632;BME280;49583;45.590;-122.498;2022-12-07T10:48:19;101846.16;;;5.01;76.44
50632;BME280;49583;45.590;-122.498;2022-12-07T10:51:03;101844.65;;;4.99;76.39
50632;BME280;49583;45.590;-122.498;2022-12-07T10:53:41;101843.67;;;4.99;76.24
50632;BME280;49583;45.590;-122.498;2022-12-07T10:56:21;101843.64;;;4.97;76.41
50632;BME280;49583;45.590;-122.498;2022-12-07T10:58:55;101843.18;;;4.96;76.58
50632;BME280;49583;45.590;-122.498;2022-12-07T11:01:20;101839.73;;;4.95;76.69
50632;BME280;49583;45.590;-122.498;2022-12-07T11:03:42;101841.48;;;4.94;76.64
50632;BME280;49583;45.590;-122.498;2022-12-07T11:06:04;101836.93;;;4.93;76.78
50632;BME280;49583;45.590;-122.498;2022-12-07T11:08:29;101835.46;;;4.93;76.54
50632;BME280;49583;45.590;-122.498;2022-12-07T11:10:47;101832.37;;;4.94;76.69
50632;BME280;49583;45.590;-122.498;2022-12-07T11:13:21;101831.50;;;4.93;76.58
50632;BME280;49583;45.590;-122.498;2022-12-07T11:15:46;101823.46;;;4.94;76.93
50632;BME280;49583;45.590;-122.498;2022-12-07T11:18:07;101823.10;;;4.92;76.60
50632;BME280;49583;45.590;-122.498;2022-12-07T11:20:35;101819.92;;;4.89;76.88
50632;BME280;49583;45.590;-122.498;2022-12-07T11:22:54;101815.52;;;4.87;76.82
50632;BME280;49583;45.590;-122.498;2022-12-07T11:25:20;101807.85;;;4.85;76.70
50632;BME280;49583;45.590;-122.498;2022-12-07T11:27:40;101801.17;;;4.84;76.85
50632;BME280;49583;45.590;-122.498;2022-12-07T11:30:11;101800.16;;;4.82;76.69
50632;BME280;49583;45.590;-122.498;2022-12-07T11:32:39;101797.21;;;4.80;76.83
50632;BME280;49583;45.590;-122.498;2022-12-07T11:34:59;101794.33;;;4.77;76.83
50632;BME280;49583;45.590;-122.498;2022-12-07T11:37:20;101789.91;;;4.75;76.78
50632;BME280;49583;45.590;-122.498;2022-12-07T11:39:37;101789.48;;;4.74;76.76
50632;BME280;49583;45.590;-122.498;2022-12-07T11:41:55;101788.39;;;4.71;76.90